createdAt,value
2018-06-24T00:02:10.953Z,44.30
2018-06-24T00:04:39.294Z,44.30
2018-06-24T00:07:07.585Z,44.30
2018-06-24T00:09:35.848Z,44.30
2018-06-24T00:12:04.160Z,44.30
2018-06-24T00:14:32.441Z,44.30
2018-06-24T00:17:00.842Z,44.40
2018-06-24T00:19:29.093Z,44.30
2018-06-24T00:21:57.885Z,44.30
2018-06-24T00:27:17.070Z,44.20
2018-06-24T00:29:45.383Z,44.30
2018-06-24T00:32:13.659Z,44.30
2018-06-24T00:34:41.921Z,44.30
2018-06-24T00:37:10.293Z,44.50
2018-06-24T00:39:38.820Z,44.60
2018-06-24T00:42:07.121Z,44.50
2018-06-24T00:44:35.381Z,44.50
2018-06-24T00:47:03.680Z,44.50
2018-06-24T00:49:32.025Z,44.50
2018-06-24T00:52:00.243Z,44.50
2018-06-24T00:54:28.493Z,44.60
2018-06-24T00:56:56.793Z,44.60
2018-06-24T00:59:36.457Z,44.60
2018-06-24T01:02:04.684Z,45.00
2018-06-24T01:09:28.955Z,44.60
2018-06-24T01:11:57.276Z,44.60
2018-06-24T01:14:25.532Z,44.80
2018-06-24T01:16:53.788Z,44.70
2018-06-24T01:19:22.069Z,44.80
2018-06-24T01:21:50.334Z,44.80
2018-06-24T01:24:18.625Z,44.90
2018-06-24T01:26:46.897Z,44.90
2018-06-24T01:29:15.157Z,44.80
2018-06-24T01:31:43.436Z,44.90
2018-06-24T01:34:11.715Z,45.00
2018-06-24T01:36:40.048Z,45.00
2018-06-24T01:39:08.329Z,45.00
2018-06-24T01:41:36.593Z,45.10
2018-06-24T01:44:04.886Z,45.00
2018-06-24T01:46:33.225Z,45.10
2018-06-24T01:49:01.478Z,45.10
2018-06-24T01:51:29.997Z,45.10
2018-06-24T01:53:58.323Z,45.20
2018-06-24T01:56:26.566Z,45.20
2018-06-24T01:58:54.817Z,45.30
2018-06-24T02:01:23.252Z,45.30
2018-06-24T02:03:51.527Z,45.30
2018-06-24T02:06:19.840Z,45.40
2018-06-24T02:08:48.114Z,45.40
2018-06-24T02:11:16.377Z,45.40
2018-06-24T02:13:44.768Z,45.50
2018-06-24T02:16:13.041Z,45.50
2018-06-24T02:18:41.322Z,45.50
2018-06-24T02:21:09.593Z,45.50
2018-06-24T02:23:37.921Z,45.60
2018-06-24T02:26:06.205Z,45.60
2018-06-24T02:28:34.554Z,45.80
2018-06-24T02:31:02.830Z,45.80
2018-06-24T02:33:31.089Z,46.50
2018-06-24T02:35:59.386Z,45.80
2018-06-24T02:38:27.637Z,45.70
2018-06-24T02:40:55.871Z,45.90
2018-06-24T02:43:24.126Z,45.90
2018-06-24T02:45:52.367Z,45.90
2018-06-24T02:48:20.662Z,46.00
2018-06-24T02:50:48.926Z,46.00
2018-06-24T02:53:17.197Z,46.00
2018-06-24T02:55:45.503Z,46.10
2018-06-24T02:58:13.833Z,46.20
2018-06-24T03:00:42.151Z,46.20
2018-06-24T03:03:10.401Z,46.20
2018-06-24T03:05:38.689Z,46.30
2018-06-24T03:08:07.101Z,46.40
2018-06-24T03:10:35.642Z,46.40
2018-06-24T03:13:04.089Z,46.40
2018-06-24T03:15:32.341Z,46.40
2018-06-24T03:18:00.656Z,46.40
2018-06-24T03:20:28.921Z,46.40
2018-06-24T03:22:57.193Z,46.40
2018-06-24T03:25:25.472Z,46.50
2018-06-24T03:27:53.753Z,46.50
2018-06-24T03:30:22.030Z,46.50
2018-06-24T03:32:50.339Z,46.50
2018-06-24T03:35:18.632Z,46.50
2018-06-24T03:37:46.919Z,46.50
2018-06-24T03:40:15.300Z,46.60
2018-06-24T03:42:44.304Z,46.60
2018-06-24T03:45:12.608Z,46.70
2018-06-24T03:47:40.853Z,46.60
2018-06-24T03:52:37.273Z,47.10
2018-06-24T03:55:05.612Z,46.70
2018-06-24T03:57:33.970Z,46.80
2018-06-24T04:00:02.243Z,46.80
2018-06-24T04:02:30.578Z,46.90
2018-06-24T04:04:58.849Z,46.80
2018-06-24T04:07:27.269Z,46.90
2018-06-24T04:09:55.592Z,46.90
2018-06-24T04:12:23.874Z,46.90
2018-06-24T04:14:52.170Z,46.90
2018-06-24T04:17:20.466Z,46.90
2018-06-24T04:19:48.710Z,46.90
2018-06-24T04:22:16.994Z,47.00
2018-06-24T04:24:45.287Z,47.00
2018-06-24T04:27:13.608Z,47.20
2018-06-24T04:29:41.880Z,47.20
2018-06-24T04:32:10.165Z,47.20
2018-06-24T04:34:38.456Z,47.20
2018-06-24T04:37:06.761Z,47.00
2018-06-24T04:39:35.061Z,47.20
2018-06-24T04:42:03.350Z,47.40
2018-06-24T04:44:31.620Z,47.30
2018-06-24T04:46:59.884Z,47.40
2018-06-24T04:49:28.175Z,47.50
2018-06-24T04:51:56.461Z,47.40
2018-06-24T04:54:24.741Z,47.50
2018-06-24T04:56:53.013Z,47.50
2018-06-24T04:59:21.290Z,47.50
2018-06-24T05:01:49.565Z,47.50
2018-06-24T05:04:17.852Z,47.50
2018-06-24T05:06:46.106Z,47.50
2018-06-24T05:09:14.368Z,47.50
2018-06-24T05:11:42.616Z,47.90
2018-06-24T05:14:10.952Z,47.50
2018-06-24T05:16:39.218Z,47.40
2018-06-24T05:19:07.488Z,48.10
2018-06-24T05:21:35.769Z,47.50
2018-06-24T05:24:04.059Z,47.50
2018-06-24T05:26:32.330Z,47.60
2018-06-24T05:29:00.609Z,47.50
2018-06-24T05:31:28.868Z,47.50
2018-06-24T05:33:57.201Z,47.60
2018-06-24T05:36:25.460Z,47.70
2018-06-24T05:38:53.742Z,47.70
2018-06-24T05:41:21.995Z,47.80
2018-06-24T05:43:50.250Z,47.70
2018-06-24T05:46:18.549Z,47.80
2018-06-24T05:48:46.911Z,48.00
2018-06-24T05:51:15.109Z,48.00
2018-06-24T05:53:43.427Z,47.90
2018-06-24T05:56:11.719Z,48.00
2018-06-24T05:58:39.960Z,48.00
2018-06-24T06:01:08.230Z,48.00
2018-06-24T06:03:36.544Z,47.90
2018-06-24T06:06:04.987Z,47.90
2018-06-24T06:08:33.275Z,48.50
2018-06-24T06:11:01.556Z,48.40
2018-06-24T06:13:29.805Z,48.60
2018-06-24T06:15:58.092Z,48.30
2018-06-24T06:18:26.363Z,48.10
2018-06-24T06:20:54.670Z,48.10
2018-06-24T06:23:22.973Z,47.90
2018-06-24T06:25:51.302Z,47.80
2018-06-24T06:28:19.602Z,47.90
2018-06-24T06:30:47.919Z,47.90
2018-06-24T06:33:16.257Z,48.60
2018-06-24T06:35:44.513Z,48.70
2018-06-24T06:38:12.785Z,48.80
2018-06-24T06:40:41.044Z,48.80
2018-06-24T06:43:09.296Z,48.60
2018-06-24T06:45:37.665Z,48.40
2018-06-24T06:48:05.996Z,48.20
2018-06-24T06:50:34.253Z,48.00
2018-06-24T06:53:02.570Z,47.90
2018-06-24T06:55:30.838Z,47.90
2018-06-24T06:57:59.162Z,47.90
2018-06-24T07:00:27.466Z,48.10
2018-06-24T07:02:55.849Z,47.90
2018-06-24T07:05:24.104Z,48.00
2018-06-24T07:07:52.352Z,47.80
2018-06-24T07:10:20.594Z,47.70
2018-06-24T07:12:48.900Z,47.70
2018-06-24T07:15:17.148Z,47.70
2018-06-24T07:17:45.434Z,47.70
2018-06-24T07:20:13.718Z,48.10
2018-06-24T07:22:41.949Z,47.60
2018-06-24T07:25:10.216Z,47.70
2018-06-24T07:27:38.524Z,47.70
2018-06-24T07:30:06.764Z,47.70
2018-06-24T07:32:35.042Z,47.70
2018-06-24T07:35:03.333Z,47.60
2018-06-24T07:37:31.619Z,47.60
2018-06-24T07:39:59.911Z,48.20
2018-06-24T07:42:28.157Z,47.90
2018-06-24T07:44:56.441Z,48.10
2018-06-24T07:47:24.675Z,48.00
2018-06-24T07:49:52.940Z,47.90
2018-06-24T07:52:21.217Z,47.80
2018-06-24T07:54:49.505Z,48.30
2018-06-24T07:57:17.785Z,48.70
2018-06-24T07:59:45.994Z,48.20
2018-06-24T08:02:14.299Z,48.10
2018-06-24T08:04:42.573Z,48.10
2018-06-24T08:07:10.881Z,48.30
2018-06-24T08:09:39.158Z,48.10
2018-06-24T08:12:07.463Z,48.00
2018-06-24T08:14:35.720Z,47.90
2018-06-24T08:17:04.029Z,48.40
2018-06-24T08:19:32.260Z,48.90
2018-06-24T08:22:00.521Z,49.30
2018-06-24T08:26:56.786Z,48.70
2018-06-24T08:29:25.053Z,48.40
2018-06-24T08:34:21.305Z,48.70
2018-06-24T08:36:49.599Z,48.60
2018-06-24T08:39:17.872Z,48.60
2018-06-24T08:41:46.176Z,49.60
2018-06-24T08:44:14.451Z,49.40
2018-06-24T08:46:42.733Z,49.50
2018-06-24T08:49:10.994Z,49.30
2018-06-24T08:51:39.256Z,49.20
2018-06-24T08:54:07.512Z,48.90
2018-06-24T08:56:35.809Z,49.00
2018-06-24T08:59:04.062Z,49.60
2018-06-24T09:01:32.324Z,50.00
2018-06-24T09:04:00.601Z,49.90
2018-06-24T09:06:28.904Z,49.50
2018-06-24T09:08:57.188Z,49.30
2018-06-24T09:11:25.533Z,49.50
2018-06-24T09:13:53.805Z,49.10
2018-06-24T09:16:22.057Z,49.10
2018-06-24T09:18:50.312Z,49.00
2018-06-24T09:21:18.618Z,49.00
2018-06-24T09:23:46.860Z,48.70
2018-06-24T09:26:15.137Z,48.80
2018-06-24T09:28:43.420Z,48.60
2018-06-24T09:31:11.678Z,48.50
2018-06-24T09:33:39.977Z,48.40
2018-06-24T09:36:08.289Z,48.50
2018-06-24T09:38:36.575Z,48.40
2018-06-24T09:41:04.888Z,48.30
2018-06-24T09:43:33.084Z,47.20
2018-06-24T09:46:01.582Z,48.30
2018-06-24T09:48:29.846Z,48.20
2018-06-24T09:50:58.104Z,47.90
2018-06-24T09:53:26.381Z,47.90
2018-06-24T09:55:54.645Z,48.00
2018-06-24T09:58:22.925Z,48.30
2018-06-24T10:00:51.216Z,47.50
2018-06-24T10:03:19.524Z,47.60
2018-06-24T10:05:47.738Z,48.00
2018-06-24T10:08:16.097Z,47.60
2018-06-24T10:10:44.357Z,46.00
2018-06-24T10:13:12.605Z,49.00
2018-06-24T10:15:40.981Z,48.90
2018-06-24T10:18:09.265Z,48.50
2018-06-24T10:20:37.657Z,47.00
2018-06-24T10:23:05.861Z,48.60
2018-06-24T10:25:34.141Z,48.20
2018-06-24T10:28:02.404Z,47.80
2018-06-24T10:30:30.705Z,47.60
2018-06-24T10:32:58.993Z,48.10
2018-06-24T10:35:27.252Z,48.00
2018-06-24T10:37:55.520Z,47.60
2018-06-24T10:40:23.774Z,47.00
2018-06-24T10:42:52.100Z,48.00
2018-06-24T10:45:20.378Z,48.10
2018-06-24T10:47:48.664Z,48.00
2018-06-24T10:50:16.925Z,48.00
2018-06-24T10:52:45.209Z,47.80
2018-06-24T10:55:13.497Z,47.40
2018-06-24T10:57:41.759Z,45.50
2018-06-24T11:00:10.078Z,47.80
2018-06-24T11:02:38.353Z,48.50
2018-06-24T11:05:06.624Z,48.20
2018-06-24T11:07:34.860Z,48.20
2018-06-24T11:10:03.156Z,47.80
2018-06-24T11:12:31.409Z,47.50
2018-06-24T11:15:00.221Z,48.00
2018-06-24T11:17:28.554Z,48.50
2018-06-24T11:19:56.824Z,47.10
2018-06-24T11:22:25.280Z,48.10
2018-06-24T11:24:53.528Z,48.10
2018-06-24T11:29:49.765Z,48.10
2018-06-24T11:32:18.057Z,47.70
2018-06-24T11:34:46.328Z,47.90
2018-06-24T11:37:14.593Z,47.70
2018-06-24T11:39:42.902Z,47.70
2018-06-24T11:42:11.141Z,47.80
2018-06-24T11:44:39.436Z,47.60
2018-06-24T11:47:07.678Z,47.90
2018-06-24T11:49:36.001Z,47.80
2018-06-24T11:52:04.313Z,47.60
2018-06-24T11:54:32.554Z,47.80
2018-06-24T11:57:00.993Z,48.50
2018-06-24T11:59:29.164Z,48.30
2018-06-24T12:01:57.443Z,47.70
2018-06-24T12:04:25.857Z,47.50
2018-06-24T12:06:54.237Z,47.30
2018-06-24T12:09:22.428Z,47.60
2018-06-24T12:11:50.742Z,44.80
2018-06-24T12:14:19.019Z,47.30
2018-06-24T12:16:47.352Z,47.30
2018-06-24T12:19:15.599Z,47.00
2018-06-24T12:21:43.860Z,47.40
2018-06-24T12:24:12.124Z,47.40
2018-06-24T12:26:40.405Z,47.20
2018-06-24T12:29:08.662Z,46.80
2018-06-24T12:31:36.920Z,46.70
2018-06-24T12:34:05.321Z,46.50
2018-06-24T12:36:37.298Z,46.50
2018-06-24T12:39:08.563Z,46.80
2018-06-24T12:41:36.789Z,46.90
2018-06-24T12:44:11.858Z,46.60
2018-06-24T12:46:40.176Z,46.50
2018-06-24T12:49:08.737Z,46.70
2018-06-24T12:51:38.122Z,47.10
2018-06-24T12:54:06.816Z,46.80
2018-06-24T12:59:03.136Z,46.40
2018-06-24T13:01:31.413Z,46.50
2018-06-24T13:03:59.763Z,46.60
2018-06-24T13:06:28.096Z,45.80
2018-06-24T13:08:56.596Z,45.70
2018-06-24T13:11:25.216Z,47.20
2018-06-24T13:13:53.477Z,47.10
2018-06-24T13:18:49.877Z,46.50
2018-06-24T13:21:18.211Z,46.60
2018-06-24T13:23:46.454Z,45.10
2018-06-24T13:26:14.750Z,45.20
2018-06-24T13:28:43.001Z,46.20
2018-06-24T13:33:39.321Z,45.70
2018-06-24T13:36:07.825Z,44.60
2018-06-24T13:38:36.143Z,46.20
2018-06-24T13:41:04.426Z,44.60
2018-06-24T13:43:32.756Z,44.00
2018-06-24T13:46:01.008Z,44.80
2018-06-24T13:48:29.269Z,47.30
2018-06-24T13:50:57.536Z,47.30
2018-06-24T13:53:25.790Z,46.20
2018-06-24T13:55:54.092Z,45.50
2018-06-24T13:58:22.341Z,45.50
2018-06-24T14:03:18.956Z,46.40
2018-06-24T14:05:47.260Z,44.70
2018-06-24T14:08:15.517Z,44.50
2018-06-24T14:10:43.809Z,45.70
2018-06-24T14:13:12.095Z,46.20
2018-06-24T14:15:40.411Z,45.90
2018-06-24T14:18:08.700Z,46.10
2018-06-24T14:20:36.938Z,44.90
2018-06-24T14:23:12.251Z,43.70
2018-06-24T14:25:40.445Z,43.10
2018-06-24T14:28:08.716Z,46.10
2018-06-24T14:30:37.031Z,44.40
2018-06-24T14:33:05.302Z,46.20
2018-06-24T14:35:33.584Z,46.80
2018-06-24T14:38:01.829Z,44.70
2018-06-24T14:40:30.145Z,45.90
2018-06-24T14:42:58.441Z,46.10
2018-06-24T14:45:26.711Z,45.90
2018-06-24T14:47:55.042Z,45.30
2018-06-24T14:50:23.328Z,44.50
2018-06-24T14:52:51.637Z,46.30
2018-06-24T14:55:19.940Z,46.30
2018-06-24T14:57:48.379Z,46.90
2018-06-24T15:00:16.657Z,46.50
2018-06-24T15:02:44.971Z,45.30
2018-06-24T15:05:13.424Z,46.70
2018-06-24T15:07:42.488Z,46.70
2018-06-24T15:10:10.777Z,44.00
2018-06-24T15:12:39.012Z,47.00
2018-06-24T15:15:07.344Z,47.00
2018-06-24T15:17:35.656Z,46.70
2018-06-24T15:20:03.988Z,46.70
2018-06-24T15:22:32.220Z,46.50
2018-06-24T15:25:00.579Z,46.40
2018-06-24T15:27:28.844Z,45.50
2018-06-24T15:29:57.285Z,46.30
2018-06-24T15:32:25.629Z,46.70
2018-06-24T15:34:53.898Z,46.70
2018-06-24T15:37:22.533Z,46.70
2018-06-24T15:39:50.808Z,45.20
2018-06-24T15:42:19.201Z,45.30
2018-06-24T15:44:47.632Z,46.90
2018-06-24T15:47:16.049Z,46.10
2018-06-24T15:49:44.394Z,45.70
2018-06-24T15:52:12.720Z,45.80
2018-06-24T15:54:40.985Z,46.40
2018-06-24T15:57:09.314Z,46.50
2018-06-24T15:59:37.764Z,46.00
2018-06-24T16:02:06.701Z,44.80
2018-06-24T16:04:34.925Z,45.20
2018-06-24T16:07:03.196Z,46.00
2018-06-24T16:09:31.477Z,46.40
2018-06-24T16:11:59.718Z,46.90
2018-06-24T16:14:27.996Z,47.00
2018-06-24T16:16:56.287Z,44.50
2018-06-24T16:19:24.540Z,45.40
2018-06-24T16:21:52.765Z,47.20
2018-06-24T16:24:21.302Z,47.10
2018-06-24T16:26:49.621Z,47.00
2018-06-24T16:29:18.529Z,47.60
2018-06-24T16:31:47.149Z,47.00
2018-06-24T16:34:15.417Z,46.90
2018-06-24T16:36:43.693Z,45.80
2018-06-24T16:39:13.093Z,44.70
2018-06-24T16:41:41.406Z,46.10
2018-06-24T16:44:09.820Z,47.00
2018-06-24T16:46:38.082Z,47.00
2018-06-24T16:49:06.385Z,46.70
2018-06-24T16:51:34.945Z,45.00
2018-06-24T16:54:03.201Z,44.60
2018-06-24T16:56:31.496Z,46.80
2018-06-24T16:58:59.789Z,47.20
2018-06-24T17:01:28.308Z,47.10
2018-06-24T17:03:56.663Z,46.30
2018-06-24T17:06:24.968Z,47.00
2018-06-24T17:08:53.234Z,46.80
2018-06-24T17:11:21.464Z,46.80
2018-06-24T17:13:49.989Z,45.50
2018-06-24T17:16:18.388Z,47.20
2018-06-24T17:18:46.849Z,46.50
2018-06-24T17:21:15.232Z,47.20
2018-06-24T17:23:43.504Z,46.40
2018-06-24T17:26:11.769Z,47.20
2018-06-24T17:28:40.062Z,46.90
2018-06-24T17:31:08.424Z,45.40
2018-06-24T17:33:36.690Z,45.10
2018-06-24T17:36:04.983Z,45.50
2018-06-24T17:38:33.426Z,47.40
2018-06-24T17:41:01.720Z,47.60
2018-06-24T17:43:30.217Z,48.00
2018-06-24T17:45:58.526Z,47.40
2018-06-24T17:48:26.731Z,45.20
2018-06-24T17:50:55.001Z,47.60
2018-06-24T17:53:23.292Z,46.70
2018-06-24T17:55:51.568Z,47.70
2018-06-24T17:58:19.825Z,47.80
2018-06-24T18:00:48.282Z,47.60
2018-06-24T18:03:16.576Z,47.70
2018-06-24T18:05:44.885Z,47.90
2018-06-24T18:08:13.209Z,48.10
2018-06-24T18:10:41.462Z,48.00
2018-06-24T18:13:09.776Z,47.10
2018-06-24T18:15:38.084Z,46.50
2018-06-24T18:18:06.385Z,48.00
2018-06-24T18:20:34.775Z,48.10
2018-06-24T18:23:03.139Z,48.00
2018-06-24T18:25:31.403Z,48.60
2018-06-24T18:27:59.661Z,47.50
2018-06-24T18:32:55.981Z,47.90
2018-06-24T18:35:24.402Z,48.00
2018-06-24T18:37:52.896Z,48.20
2018-06-24T18:40:21.222Z,48.00
2018-06-24T18:42:49.541Z,48.00
2018-06-24T18:47:45.844Z,48.30
2018-06-24T18:50:14.093Z,48.30
2018-06-24T18:52:42.370Z,48.30
2018-06-24T18:55:10.687Z,48.40
2018-06-24T18:57:38.997Z,48.40
2018-06-24T19:00:07.466Z,47.90
2018-06-24T19:02:35.914Z,48.50
2018-06-24T19:05:04.418Z,48.50
2018-06-24T19:07:32.669Z,48.40
2018-06-24T19:10:00.927Z,48.10
2018-06-24T19:12:29.189Z,48.60
2018-06-24T19:14:57.448Z,49.10
2018-06-24T19:17:25.828Z,48.80
2018-06-24T19:19:54.088Z,48.70
2018-06-24T19:22:22.404Z,48.70
2018-06-24T19:24:50.717Z,49.20
2018-06-24T19:27:19.077Z,48.70
2018-06-24T19:29:47.410Z,48.90
2018-06-24T19:32:15.752Z,48.80
2018-06-24T19:34:44.028Z,48.90
2018-06-24T19:37:12.305Z,49.10
2018-06-24T19:39:40.609Z,49.10
2018-06-24T19:42:08.916Z,49.00
2018-06-24T19:47:05.157Z,49.10
2018-06-24T19:49:33.524Z,49.00
2018-06-24T19:52:01.772Z,49.00
2018-06-24T19:54:30.042Z,49.10
2018-06-24T19:56:58.358Z,49.20
2018-06-24T19:59:26.588Z,49.10
2018-06-24T20:01:54.888Z,49.20
2018-06-24T20:04:23.181Z,49.30
2018-06-24T20:06:51.469Z,49.20
2018-06-24T20:09:19.798Z,49.10
2018-06-24T20:11:48.109Z,49.40
2018-06-24T20:14:16.450Z,49.40
2018-06-24T20:16:45.649Z,49.30
2018-06-24T20:19:13.917Z,49.20
2018-06-24T20:21:43.777Z,49.20
2018-06-24T20:24:13.619Z,49.10
2018-06-24T20:26:43.232Z,49.10
2018-06-24T20:29:12.902Z,49.20
2018-06-24T20:31:42.599Z,49.20
2018-06-24T20:34:12.462Z,49.10
2018-06-24T20:36:42.109Z,49.20
2018-06-24T20:39:12.058Z,49.20
2018-06-24T20:41:41.756Z,49.30
2018-06-24T20:44:11.528Z,49.30
2018-06-24T20:46:41.282Z,49.40
2018-06-24T20:49:11.203Z,49.50
2018-06-24T20:51:39.511Z,49.20
2018-06-24T20:54:07.774Z,49.50
2018-06-24T20:56:36.123Z,49.30
2018-06-24T20:59:04.408Z,49.40
2018-06-24T21:01:32.697Z,49.40
2018-06-24T21:04:01.102Z,49.40
2018-06-24T21:06:29.277Z,49.50
2018-06-24T21:08:57.554Z,49.40
2018-06-24T21:11:25.804Z,49.50
2018-06-24T21:13:54.075Z,49.60
2018-06-24T21:16:22.625Z,49.50
2018-06-24T21:18:50.954Z,49.60
2018-06-24T21:21:19.216Z,49.70
2018-06-24T21:23:47.466Z,49.30
2018-06-24T21:26:15.771Z,49.60
2018-06-24T21:28:44.119Z,49.70
2018-06-24T21:31:12.389Z,49.70
2018-06-24T21:33:40.657Z,49.50
2018-06-24T21:36:08.923Z,49.40
2018-06-24T21:38:37.248Z,49.60
2018-06-24T21:43:33.559Z,49.70
2018-06-24T21:46:01.857Z,49.60
2018-06-24T21:48:30.122Z,49.60
2018-06-24T21:50:58.431Z,49.70
2018-06-24T21:53:26.701Z,49.60
2018-06-24T21:55:55.046Z,49.60
2018-06-24T21:58:23.301Z,49.90
2018-06-24T22:00:51.560Z,49.80
2018-06-24T22:03:19.949Z,49.90
2018-06-24T22:05:48.261Z,49.80
2018-06-24T22:08:16.529Z,49.80
2018-06-24T22:10:44.835Z,49.80
2018-06-24T22:13:13.121Z,50.00
2018-06-24T22:15:41.610Z,49.90
2018-06-24T22:18:09.869Z,50.00
2018-06-24T22:20:38.113Z,50.00
2018-06-24T22:23:06.524Z,49.90
2018-06-24T22:25:34.801Z,50.00
2018-06-24T22:28:03.103Z,50.00
2018-06-24T22:30:31.384Z,49.90
2018-06-24T22:32:59.679Z,50.00
2018-06-24T22:35:27.924Z,49.70
2018-06-24T22:37:56.228Z,50.20
2018-06-24T22:40:24.593Z,50.10
2018-06-24T22:42:52.824Z,50.00
2018-06-24T22:45:21.213Z,49.90
2018-06-24T22:47:49.455Z,49.90
2018-06-24T22:50:17.748Z,50.00
2018-06-24T22:52:46.013Z,49.70
2018-06-24T22:57:42.463Z,49.90
2018-06-24T23:00:16.429Z,49.90
2018-06-24T23:02:45.299Z,49.80
2018-06-24T23:05:14.109Z,49.90
2018-06-24T23:07:43.327Z,49.80
2018-06-24T23:10:12.288Z,49.90
2018-06-24T23:12:40.614Z,49.80
2018-06-24T23:15:10.037Z,49.80
2018-06-24T23:17:38.638Z,49.90
2018-06-24T23:22:36.069Z,50.20
2018-06-24T23:25:04.659Z,50.00
2018-06-24T23:27:32.900Z,50.00
2018-06-24T23:30:01.204Z,50.70
2018-06-24T23:32:29.453Z,50.10
2018-06-24T23:34:57.692Z,50.00
2018-06-24T23:37:25.956Z,49.90
2018-06-24T23:39:54.270Z,50.20
2018-06-24T23:42:22.508Z,50.10
2018-06-24T23:44:50.789Z,50.10
2018-06-24T23:47:19.052Z,50.00
2018-06-24T23:49:47.324Z,50.10
2018-06-24T23:52:15.596Z,50.10
2018-06-24T23:54:43.892Z,50.40
2018-06-24T23:57:12.162Z,50.20
2018-06-24T23:59:40.425Z,50.20
